sensor_id;sensor_type;location;lat;lon;timestamp;temperature;humidity
51567;DHT22;37657;53.182;5.638;2023-07-09T00:02:16;21.90;99.90
51567;DHT22;37657;53.182;5.638;2023-07-09T00:04:42;21.90;99.90
51567;DHT22;37657;53.182;5.638;2023-07-09T00:07:23;21.80;99.90
51567;DHT22;37657;53.182;5.638;2023-07-09T00:09:50;21.80;99.90
51567;DHT22;37657;53.182;5.638;2023-07-09T00:12:17;21.80;99.90
51567;DHT22;37657;53.182;5.638;2023-07-09T00:14:43;21.80;99.90
51567;DHT22;37657;53.182;5.638;2023-07-09T00:17:33;21.70;99.90
51567;DHT22;37657;53.182;5.638;2023-07-09T00:20:03;21.70;99.90
51567;DHT22;37657;53.182;5.638;2023-07-09T00:22:30;21.60;99.90
51567;DHT22;37657;53.182;5.638;2023-07-09T00:24:56;21.70;99.90
51567;DHT22;37657;53.182;5.638;2023-07-09T00:27:28;21.60;99.90
51567;DHT22;37657;53.182;5.638;2023-07-09T00:29:54;21.60;99.90
51567;DHT22;37657;53.182;5.638;2023-07-09T00:32:20;21.60;99.90
51567;DHT22;37657;53.182;5.638;2023-07-09T00:34:47;21.60;99.90
51567;DHT22;37657;53.182;5.638;2023-07-09T00:37:17;21.50;99.90
51567;DHT22;37657;53.182;5.638;2023-07-09T00:39:44;21.40;99.90
51567;DHT22;37657;53.182;5.638;2023-07-09T00:42:15;21.40;99.90
51567;DHT22;37657;53.182;5.638;2023-07-09T00:44:44;21.30;99.90
51567;DHT22;37657;53.182;5.638;2023-07-09T00:50:29;21.40;99.90
51567;DHT22;37657;53.182;5.638;2023-07-09T00:53:09;21.40;99.90
51567;DHT22;37657;53.182;5.638;2023-07-09T00:55:39;21.30;99.90
51567;DHT22;37657;53.182;5.638;2023-07-09T00:58:10;21.30;99.90
51567;DHT22;37657;53.182;5.638;2023-07-09T01:00:41;21.30;99.90
51567;DHT22;37657;53.182;5.638;2023-07-09T01:03:15;21.20;99.90
51567;DHT22;37657;53.182;5.638;2023-07-09T01:05:45;21.20;99.90
51567;DHT22;37657;53.182;5.638;2023-07-09T01:08:17;21.20;99.90
51567;DHT22;37657;53.182;5.638;2023-07-09T01:10:43;21.20;99.90
51567;DHT22;37657;53.182;5.638;2023-07-09T01:13:09;21.20;99.90
51567;DHT22;37657;53.182;5.638;2023-07-09T01:15:35;21.10;99.90
51567;DHT22;37657;53.182;5.638;2023-07-09T01:18:03;21.10;99.90
51567;DHT22;37657;53.182;5.638;2023-07-09T01:20:30;21.10;99.90
51567;DHT22;37657;53.182;5.638;2023-07-09T01:22:56;21.00;99.90
51567;DHT22;37657;53.182;5.638;2023-07-09T01:25:25;20.90;99.90
51567;DHT22;37657;53.182;5.638;2023-07-09T01:27:51;21.00;99.90
51567;DHT22;37657;53.182;5.638;2023-07-09T01:30:31;21.00;99.90
51567;DHT22;37657;53.182;5.638;2023-07-09T01:33:04;20.90;99.90
51567;DHT22;37657;53.182;5.638;2023-07-09T01:35:36;21.00;99.90
51567;DHT22;37657;53.182;5.638;2023-07-09T01:38:02;21.00;99.90
51567;DHT22;37657;53.182;5.638;2023-07-09T01:40:32;21.00;99.90
51567;DHT22;37657;53.182;5.638;2023-07-09T01:42:59;20.90;99.90
51567;DHT22;37657;53.182;5.638;2023-07-09T01:45:35;20.90;99.90
51567;DHT22;37657;53.182;5.638;2023-07-09T01:48:02;20.90;99.90
51567;DHT22;37657;53.182;5.638;2023-07-09T01:50:27;20.90;99.90
51567;DHT22;37657;53.182;5.638;2023-07-09T01:52:57;20.90;99.90
51567;DHT22;37657;53.182;5.638;2023-07-09T01:55:23;20.90;99.90
51567;DHT22;37657;53.182;5.638;2023-07-09T01:57:49;20.90;99.90
51567;DHT22;37657;53.182;5.638;2023-07-09T02:00:19;20.90;99.90
51567;DHT22;37657;53.182;5.638;2023-07-09T02:02:48;20.90;99.90
51567;DHT22;37657;53.182;5.638;2023-07-09T02:05:17;20.90;99.90
51567;DHT22;37657;53.182;5.638;2023-07-09T02:07:50;20.80;99.90
51567;DHT22;37657;53.182;5.638;2023-07-09T02:10:16;20.80;99.90
51567;DHT22;37657;53.182;5.638;2023-07-09T02:12:42;20.70;99.90
51567;DHT22;37657;53.182;5.638;2023-07-09T02:15:09;20.70;99.90
51567;DHT22;37657;53.182;5.638;2023-07-09T02:17:34;20.70;99.90
51567;DHT22;37657;53.182;5.638;2023-07-09T02:20:00;20.60;99.90
51567;DHT22;37657;53.182;5.638;2023-07-09T02:22:26;20.70;99.90
51567;DHT22;37657;53.182;5.638;2023-07-09T02:24:51;20.70;99.90
51567;DHT22;37657;53.182;5.638;2023-07-09T02:27:20;20.70;99.90
51567;DHT22;37657;53.182;5.638;2023-07-09T02:29:54;20.70;99.90
51567;DHT22;37657;53.182;5.638;2023-07-09T02:32:25;20.70;99.90
51567;DHT22;37657;53.182;5.638;2023-07-09T02:34:55;20.60;99.90
51567;DHT22;37657;53.182;5.638;2023-07-09T02:37:25;20.60;99.90
51567;DHT22;37657;53.182;5.638;2023-07-09T02:39:52;20.70;99.90
51567;DHT22;37657;53.182;5.638;2023-07-09T02:42:19;20.60;99.90
51567;DHT22;37657;53.182;5.638;2023-07-09T02:44:45;20.60;99.90
51567;DHT22;37657;53.182;5.638;2023-07-09T02:47:12;20.50;99.90
51567;DHT22;37657;53.182;5.638;2023-07-09T02:49:38;20.50;99.90
51567;DHT22;37657;53.182;5.638;2023-07-09T02:52:05;20.50;99.90
51567;DHT22;37657;53.182;5.638;2023-07-09T02:54:30;20.50;99.90
51567;DHT22;37657;53.182;5.638;2023-07-09T02:56:56;20.50;99.90
51567;DHT22;37657;53.182;5.638;2023-07-09T02:59:22;20.50;99.90
51567;DHT22;37657;53.182;5.638;2023-07-09T03:01:49;20.50;99.90
51567;DHT22;37657;53.182;5.638;2023-07-09T03:04:19;20.40;99.90
51567;DHT22;37657;53.182;5.638;2023-07-09T03:06:49;20.50;99.90
51567;DHT22;37657;53.182;5.638;2023-07-09T03:09:16;20.50;99.90
51567;DHT22;37657;53.182;5.638;2023-07-09T03:11:43;20.50;99.90
51567;DHT22;37657;53.182;5.638;2023-07-09T03:14:15;20.40;99.90
51567;DHT22;37657;53.182;5.638;2023-07-09T03:16:40;20.40;99.90
51567;DHT22;37657;53.182;5.638;2023-07-09T03:19:06;20.30;99.90
51567;DHT22;37657;53.182;5.638;2023-07-09T03:21:32;20.30;99.90
51567;DHT22;37657;53.182;5.638;2023-07-09T03:23:58;20.30;99.90
51567;DHT22;37657;53.182;5.638;2023-07-09T03:26:24;20.20;99.90
51567;DHT22;37657;53.182;5.638;2023-07-09T03:28:51;20.20;99.90
51567;DHT22;37657;53.182;5.638;2023-07-09T03:31:16;20.20;99.90
51567;DHT22;37657;53.182;5.638;2023-07-09T03:33:42;20.20;99.90
51567;DHT22;37657;53.182;5.638;2023-07-09T03:36:08;20.20;99.90
51567;DHT22;37657;53.182;5.638;2023-07-09T03:38:34;20.20;99.90
51567;DHT22;37657;53.182;5.638;2023-07-09T03:40:59;20.20;99.90
51567;DHT22;37657;53.182;5.638;2023-07-09T03:43:25;20.20;99.90
51567;DHT22;37657;53.182;5.638;2023-07-09T03:45:51;20.10;99.90
51567;DHT22;37657;53.182;5.638;2023-07-09T03:48:18;20.10;99.90
51567;DHT22;37657;53.182;5.638;2023-07-09T03:50:46;20.10;99.90
51567;DHT22;37657;53.182;5.638;2023-07-09T03:53:12;20.10;99.90
51567;DHT22;37657;53.182;5.638;2023-07-09T03:55:38;20.10;99.90
51567;DHT22;37657;53.182;5.638;2023-07-09T03:58:04;20.20;99.90
51567;DHT22;37657;53.182;5.638;2023-07-09T04:00:30;20.20;99.90
51567;DHT22;37657;53.182;5.638;2023-07-09T04:02:55;20.10;99.90
51567;DHT22;37657;53.182;5.638;2023-07-09T04:05:24;20.20;99.90
51567;DHT22;37657;53.182;5.638;2023-07-09T04:07:50;20.30;99.90
51567;DHT22;37657;53.182;5.638;2023-07-09T04:10:16;20.30;99.90
51567;DHT22;37657;53.182;5.638;2023-07-09T04:12:42;20.40;99.90
51567;DHT22;37657;53.182;5.638;2023-07-09T04:15:08;20.40;99.90
51567;DHT22;37657;53.182;5.638;2023-07-09T04:17:34;20.40;99.90
51567;DHT22;37657;53.182;5.638;2023-07-09T04:20:00;20.50;99.90
51567;DHT22;37657;53.182;5.638;2023-07-09T04:22:26;20.50;99.90
51567;DHT22;37657;53.182;5.638;2023-07-09T04:24:51;20.50;99.90
51567;DHT22;37657;53.182;5.638;2023-07-09T04:27:18;20.60;99.90
51567;DHT22;37657;53.182;5.638;2023-07-09T04:29:44;20.60;99.90
51567;DHT22;37657;53.182;5.638;2023-07-09T04:32:14;20.50;99.90
51567;DHT22;37657;53.182;5.638;2023-07-09T04:34:41;20.60;99.90
51567;DHT22;37657;53.182;5.638;2023-07-09T04:37:07;20.60;99.90
51567;DHT22;37657;53.182;5.638;2023-07-09T04:39:34;20.70;99.90
51567;DHT22;37657;53.182;5.638;2023-07-09T04:42:00;20.70;99.90
51567;DHT22;37657;53.182;5.638;2023-07-09T04:44:25;20.90;99.90
51567;DHT22;37657;53.182;5.638;2023-07-09T04:46:51;20.90;99.90
51567;DHT22;37657;53.182;5.638;2023-07-09T04:49:16;20.90;99.90
51567;DHT22;37657;53.182;5.638;2023-07-09T04:51:42;20.90;99.90
51567;DHT22;37657;53.182;5.638;2023-07-09T04:54:08;21.00;99.90
51567;DHT22;37657;53.182;5.638;2023-07-09T04:56:33;21.00;99.90
51567;DHT22;37657;53.182;5.638;2023-07-09T04:58:59;21.00;99.90
51567;DHT22;37657;53.182;5.638;2023-07-09T05:01:24;21.10;99.90
51567;DHT22;37657;53.182;5.638;2023-07-09T05:03:50;21.10;99.90
51567;DHT22;37657;53.182;5.638;2023-07-09T05:06:16;21.20;99.90
51567;DHT22;37657;53.182;5.638;2023-07-09T05:08:41;21.30;99.90
51567;DHT22;37657;53.182;5.638;2023-07-09T05:11:08;21.30;99.90
51567;DHT22;37657;53.182;5.638;2023-07-09T05:13:36;21.40;99.90
51567;DHT22;37657;53.182;5.638;2023-07-09T05:16:02;21.40;99.90
51567;DHT22;37657;53.182;5.638;2023-07-09T05:18:27;21.40;99.90
51567;DHT22;37657;53.182;5.638;2023-07-09T05:20:53;21.50;99.90
51567;DHT22;37657;53.182;5.638;2023-07-09T05:23:18;21.60;99.90
51567;DHT22;37657;53.182;5.638;2023-07-09T05:25:44;21.60;99.90
51567;DHT22;37657;53.182;5.638;2023-07-09T05:28:10;21.60;99.90
51567;DHT22;37657;53.182;5.638;2023-07-09T05:30:35;21.60;99.90
51567;DHT22;37657;53.182;5.638;2023-07-09T05:33:01;21.70;99.90
51567;DHT22;37657;53.182;5.638;2023-07-09T05:35:27;21.60;99.90
51567;DHT22;37657;53.182;5.638;2023-07-09T05:37:53;21.70;99.90
51567;DHT22;37657;53.182;5.638;2023-07-09T05:40:20;21.70;99.90
51567;DHT22;37657;53.182;5.638;2023-07-09T05:42:47;21.80;99.90
51567;DHT22;37657;53.182;5.638;2023-07-09T05:45:15;21.80;99.90
51567;DHT22;37657;53.182;5.638;2023-07-09T05:47:41;21.90;99.90
51567;DHT22;37657;53.182;5.638;2023-07-09T05:50:06;22.00;99.90
51567;DHT22;37657;53.182;5.638;2023-07-09T05:52:32;22.10;99.90
51567;DHT22;37657;53.182;5.638;2023-07-09T05:54:58;22.20;99.90
51567;DHT22;37657;53.182;5.638;2023-07-09T05:57:25;22.30;99.90
51567;DHT22;37657;53.182;5.638;2023-07-09T05:59:50;22.30;99.90
51567;DHT22;37657;53.182;5.638;2023-07-09T06:02:19;22.40;99.90
51567;DHT22;37657;53.182;5.638;2023-07-09T06:04:45;22.40;99.90
51567;DHT22;37657;53.182;5.638;2023-07-09T06:07:11;22.60;99.90
51567;DHT22;37657;53.182;5.638;2023-07-09T06:09:39;22.60;99.90
51567;DHT22;37657;53.182;5.638;2023-07-09T06:12:05;22.60;99.90
51567;DHT22;37657;53.182;5.638;2023-07-09T06:14:32;22.70;99.90
51567;DHT22;37657;53.182;5.638;2023-07-09T06:16:59;22.70;99.90
51567;DHT22;37657;53.182;5.638;2023-07-09T06:19:25;22.70;99.90
51567;DHT22;37657;53.182;5.638;2023-07-09T06:21:50;22.70;99.90
51567;DHT22;37657;53.182;5.638;2023-07-09T06:24:16;22.80;99.90
51567;DHT22;37657;53.182;5.638;2023-07-09T06:26:42;22.90;99.90
51567;DHT22;37657;53.182;5.638;2023-07-09T06:29:07;23.00;99.90
51567;DHT22;37657;53.182;5.638;2023-07-09T06:31:33;23.10;99.90
51567;DHT22;37657;53.182;5.638;2023-07-09T06:33:58;23.20;99.90
51567;DHT22;37657;53.182;5.638;2023-07-09T06:36:24;23.30;99.90
51567;DHT22;37657;53.182;5.638;2023-07-09T06:38:50;23.50;99.90
51567;DHT22;37657;53.182;5.638;2023-07-09T06:41:16;23.60;99.90
51567;DHT22;37657;53.182;5.638;2023-07-09T06:43:42;23.70;99.90
51567;DHT22;37657;53.182;5.638;2023-07-09T06:46:10;23.70;99.90
51567;DHT22;37657;53.182;5.638;2023-07-09T06:48:37;23.80;99.90
51567;DHT22;37657;53.182;5.638;2023-07-09T06:51:02;23.80;99.90
51567;DHT22;37657;53.182;5.638;2023-07-09T06:53:29;23.80;99.90
51567;DHT22;37657;53.182;5.638;2023-07-09T06:55:55;23.70;99.90
51567;DHT22;37657;53.182;5.638;2023-07-09T06:58:25;23.70;99.90
51567;DHT22;37657;53.182;5.638;2023-07-09T07:00:53;23.70;99.90
51567;DHT22;37657;53.182;5.638;2023-07-09T07:03:20;23.80;99.90
51567;DHT22;37657;53.182;5.638;2023-07-09T07:05:46;23.80;99.90
51567;DHT22;37657;53.182;5.638;2023-07-09T07:08:15;23.80;99.90
51567;DHT22;37657;53.182;5.638;2023-07-09T07:10:43;23.80;99.90
51567;DHT22;37657;53.182;5.638;2023-07-09T07:13:12;23.90;99.90
51567;DHT22;37657;53.182;5.638;2023-07-09T07:15:38;23.90;99.90
51567;DHT22;37657;53.182;5.638;2023-07-09T07:18:04;23.90;99.90
51567;DHT22;37657;53.182;5.638;2023-07-09T07:20:31;24.00;99.90
51567;DHT22;37657;53.182;5.638;2023-07-09T07:22:56;23.90;99.90
51567;DHT22;37657;53.182;5.638;2023-07-09T07:25:23;23.90;99.90
51567;DHT22;37657;53.182;5.638;2023-07-09T07:27:49;23.80;99.90
51567;DHT22;37657;53.182;5.638;2023-07-09T07:30:14;23.80;99.90
51567;DHT22;37657;53.182;5.638;2023-07-09T07:32:47;23.80;99.90
51567;DHT22;37657;53.182;5.638;2023-07-09T07:35:14;23.80;99.90
51567;DHT22;37657;53.182;5.638;2023-07-09T07:37:41;23.80;99.90
51567;DHT22;37657;53.182;5.638;2023-07-09T07:40:07;23.90;99.90
51567;DHT22;37657;53.182;5.638;2023-07-09T07:42:33;23.80;99.90
51567;DHT22;37657;53.182;5.638;2023-07-09T07:44:59;23.90;99.90
51567;DHT22;37657;53.182;5.638;2023-07-09T07:47:25;24.10;99.90
51567;DHT22;37657;53.182;5.638;2023-07-09T07:49:53;24.00;99.90
51567;DHT22;37657;53.182;5.638;2023-07-09T07:52:19;24.00;99.90
51567;DHT22;37657;53.182;5.638;2023-07-09T07:54:45;24.10;99.90
51567;DHT22;37657;53.182;5.638;2023-07-09T07:57:10;24.20;99.90
51567;DHT22;37657;53.182;5.638;2023-07-09T07:59:37;24.20;99.90
51567;DHT22;37657;53.182;5.638;2023-07-09T08:02:05;24.10;99.90
51567;DHT22;37657;53.182;5.638;2023-07-09T08:04:31;24.20;99.90
51567;DHT22;37657;53.182;5.638;2023-07-09T08:06:58;24.30;99.90
51567;DHT22;37657;53.182;5.638;2023-07-09T08:09:24;24.20;99.90
51567;DHT22;37657;53.182;5.638;2023-07-09T08:11:50;24.10;99.90
51567;DHT22;37657;53.182;5.638;2023-07-09T08:14:16;24.00;99.90
51567;DHT22;37657;53.182;5.638;2023-07-09T08:16:42;24.00;99.90
51567;DHT22;37657;53.182;5.638;2023-07-09T08:19:07;24.00;99.90
51567;DHT22;37657;53.182;5.638;2023-07-09T08:21:33;24.00;99.90
51567;DHT22;37657;53.182;5.638;2023-07-09T08:23:59;24.00;99.90
51567;DHT22;37657;53.182;5.638;2023-07-09T08:26:24;23.90;99.90
51567;DHT22;37657;53.182;5.638;2023-07-09T08:28:51;24.10;99.90
51567;DHT22;37657;53.182;5.638;2023-07-09T08:31:17;24.00;99.90
51567;DHT22;37657;53.182;5.638;2023-07-09T08:33:43;24.00;99.90
51567;DHT22;37657;53.182;5.638;2023-07-09T08:36:08;24.20;99.90
51567;DHT22;37657;53.182;5.638;2023-07-09T08:38:34;24.20;99.90
51567;DHT22;37657;53.182;5.638;2023-07-09T08:41:01;24.30;99.90
51567;DHT22;37657;53.182;5.638;2023-07-09T08:48:48;24.30;99.90
51567;DHT22;37657;53.182;5.638;2023-07-09T08:51:25;24.40;99.90
51567;DHT22;37657;53.182;5.638;2023-07-09T08:54:00;24.40;99.90
51567;DHT22;37657;53.182;5.638;2023-07-09T08:56:33;24.40;99.90
51567;DHT22;37657;53.182;5.638;2023-07-09T08:59:01;24.40;99.90
51567;DHT22;37657;53.182;5.638;2023-07-09T09:04:02;24.40;99.90
51567;DHT22;37657;53.182;5.638;2023-07-09T09:06:30;24.40;99.90
51567;DHT22;37657;53.182;5.638;2023-07-09T09:11:53;24.50;99.90
51567;DHT22;37657;53.182;5.638;2023-07-09T09:14:31;24.60;99.90
51567;DHT22;37657;53.182;5.638;2023-07-09T09:16:58;24.60;99.90
51567;DHT22;37657;53.182;5.638;2023-07-09T09:19:38;24.70;99.90
51567;DHT22;37657;53.182;5.638;2023-07-09T09:22:13;24.80;99.90
51567;DHT22;37657;53.182;5.638;2023-07-09T09:27:19;24.90;99.90
51567;DHT22;37657;53.182;5.638;2023-07-09T09:29:44;24.90;99.90
51567;DHT22;37657;53.182;5.638;2023-07-09T09:32:27;25.00;99.90
51567;DHT22;37657;53.182;5.638;2023-07-09T09:34:54;25.20;99.90
51567;DHT22;37657;53.182;5.638;2023-07-09T09:37:29;25.20;99.90
51567;DHT22;37657;53.182;5.638;2023-07-09T09:39:56;25.30;99.90
51567;DHT22;37657;53.182;5.638;2023-07-09T09:42:24;25.30;99.90
51567;DHT22;37657;53.182;5.638;2023-07-09T09:44:50;25.50;99.90
51567;DHT22;37657;53.182;5.638;2023-07-09T09:47:16;25.50;99.90
51567;DHT22;37657;53.182;5.638;2023-07-09T09:49:43;25.50;99.90
51567;DHT22;37657;53.182;5.638;2023-07-09T09:52:17;25.60;99.90
51567;DHT22;37657;53.182;5.638;2023-07-09T09:54:54;25.60;99.90
51567;DHT22;37657;53.182;5.638;2023-07-09T09:57:23;25.60;99.90
51567;DHT22;37657;53.182;5.638;2023-07-09T09:59:48;25.60;99.90
51567;DHT22;37657;53.182;5.638;2023-07-09T10:02:17;25.70;99.90
51567;DHT22;37657;53.182;5.638;2023-07-09T10:04:44;25.60;99.90
51567;DHT22;37657;53.182;5.638;2023-07-09T10:07:35;25.70;99.90
51567;DHT22;37657;53.182;5.638;2023-07-09T10:10:11;25.60;99.90
51567;DHT22;37657;53.182;5.638;2023-07-09T10:12:50;25.80;99.90
51567;DHT22;37657;53.182;5.638;2023-07-09T10:15:48;25.90;99.90
51567;DHT22;37657;53.182;5.638;2023-07-09T10:18:39;26.00;99.90
51567;DHT22;37657;53.182;5.638;2023-07-09T10:21:10;26.10;99.90
51567;DHT22;37657;53.182;5.638;2023-07-09T10:26:42;26.40;99.90
51567;DHT22;37657;53.182;5.638;2023-07-09T10:32:13;26.50;99.90
51567;DHT22;37657;53.182;5.638;2023-07-09T10:35:07;26.60;99.90
51567;DHT22;37657;53.182;5.638;2023-07-09T10:40:47;26.90;99.90
51567;DHT22;37657;53.182;5.638;2023-07-09T10:43:22;26.90;99.90
51567;DHT22;37657;53.182;5.638;2023-07-09T10:45:57;26.90;99.90
51567;DHT22;37657;53.182;5.638;2023-07-09T10:48:50;27.10;99.90
51567;DHT22;37657;53.182;5.638;2023-07-09T10:51:50;27.10;99.90
51567;DHT22;37657;53.182;5.638;2023-07-09T10:54:34;27.30;99.90
51567;DHT22;37657;53.182;5.638;2023-07-09T10:57:25;27.30;99.90
51567;DHT22;37657;53.182;5.638;2023-07-09T10:59:53;27.30;99.90
51567;DHT22;37657;53.182;5.638;2023-07-09T11:02:24;27.20;99.90
51567;DHT22;37657;53.182;5.638;2023-07-09T11:04:54;27.20;99.90
51567;DHT22;37657;53.182;5.638;2023-07-09T11:10:29;27.30;99.90
51567;DHT22;37657;53.182;5.638;2023-07-09T11:13:10;27.20;99.90
51567;DHT22;37657;53.182;5.638;2023-07-09T11:15:40;27.30;99.90
51567;DHT22;37657;53.182;5.638;2023-07-09T11:18:10;27.30;99.90
51567;DHT22;37657;53.182;5.638;2023-07-09T11:20:43;27.40;99.90
51567;DHT22;37657;53.182;5.638;2023-07-09T11:23:20;27.40;99.90
51567;DHT22;37657;53.182;5.638;2023-07-09T11:26:01;27.40;99.90
51567;DHT22;37657;53.182;5.638;2023-07-09T11:28:35;27.40;99.90
51567;DHT22;37657;53.182;5.638;2023-07-09T11:31:18;27.30;99.90
51567;DHT22;37657;53.182;5.638;2023-07-09T11:33:59;27.50;99.90
51567;DHT22;37657;53.182;5.638;2023-07-09T11:36:30;27.60;99.90
51567;DHT22;37657;53.182;5.638;2023-07-09T11:38:56;27.70;99.90
51567;DHT22;37657;53.182;5.638;2023-07-09T11:41:34;27.60;99.90
51567;DHT22;37657;53.182;5.638;2023-07-09T11:44:18;27.60;99.90
51567;DHT22;37657;53.182;5.638;2023-07-09T11:49:24;27.60;99.90
51567;DHT22;37657;53.182;5.638;2023-07-09T11:51:55;27.60;99.90
51567;DHT22;37657;53.182;5.638;2023-07-09T11:54:23;27.70;99.90
51567;DHT22;37657;53.182;5.638;2023-07-09T11:56:59;27.60;99.90
51567;DHT22;37657;53.182;5.638;2023-07-09T11:59:25;27.40;99.90
51567;DHT22;37657;53.182;5.638;2023-07-09T12:01:52;27.50;99.90
51567;DHT22;37657;53.182;5.638;2023-07-09T12:04:27;27.60;99.90
51567;DHT22;37657;53.182;5.638;2023-07-09T12:06:58;27.60;99.90
51567;DHT22;37657;53.182;5.638;2023-07-09T12:09:31;27.60;99.90
51567;DHT22;37657;53.182;5.638;2023-07-09T12:11:57;27.50;99.90
51567;DHT22;37657;53.182;5.638;2023-07-09T12:14:22;27.40;99.90
51567;DHT22;37657;53.182;5.638;2023-07-09T12:16:51;27.30;99.90
51567;DHT22;37657;53.182;5.638;2023-07-09T12:19:22;27.50;99.90
51567;DHT22;37657;53.182;5.638;2023-07-09T12:21:53;27.60;99.90
51567;DHT22;37657;53.182;5.638;2023-07-09T12:26:58;27.90;99.90
51567;DHT22;37657;53.182;5.638;2023-07-09T12:29:25;27.70;99.90
51567;DHT22;37657;53.182;5.638;2023-07-09T12:31:51;27.50;99.90
51567;DHT22;37657;53.182;5.638;2023-07-09T12:34:17;27.40;99.90
51567;DHT22;37657;53.182;5.638;2023-07-09T12:36:46;27.10;99.90
51567;DHT22;37657;53.182;5.638;2023-07-09T12:39:16;26.90;99.90
51567;DHT22;37657;53.182;5.638;2023-07-09T12:41:44;26.80;99.90
51567;DHT22;37657;53.182;5.638;2023-07-09T12:44:21;26.60;99.90
51567;DHT22;37657;53.182;5.638;2023-07-09T12:46:48;26.60;99.90
51567;DHT22;37657;53.182;5.638;2023-07-09T12:49:29;26.40;99.90
51567;DHT22;37657;53.182;5.638;2023-07-09T12:51:56;26.30;99.90
51567;DHT22;37657;53.182;5.638;2023-07-09T12:54:23;26.20;99.90
51567;DHT22;37657;53.182;5.638;2023-07-09T12:56:54;26.20;99.90
51567;DHT22;37657;53.182;5.638;2023-07-09T12:59:22;26.00;99.90
51567;DHT22;37657;53.182;5.638;2023-07-09T13:02:16;25.90;99.90
51567;DHT22;37657;53.182;5.638;2023-07-09T13:04:42;25.80;99.90
51567;DHT22;37657;53.182;5.638;2023-07-09T13:09:51;25.60;99.90
51567;DHT22;37657;53.182;5.638;2023-07-09T13:12:16;25.50;99.90
51567;DHT22;37657;53.182;5.638;2023-07-09T13:14:42;25.50;99.90
51567;DHT22;37657;53.182;5.638;2023-07-09T13:17:16;25.50;99.90
51567;DHT22;37657;53.182;5.638;2023-07-09T13:19:42;25.50;99.90
51567;DHT22;37657;53.182;5.638;2023-07-09T13:22:10;25.50;99.90
51567;DHT22;37657;53.182;5.638;2023-07-09T13:24:37;25.50;99.90
51567;DHT22;37657;53.182;5.638;2023-07-09T13:27:04;25.70;99.90
51567;DHT22;37657;53.182;5.638;2023-07-09T13:29:31;25.70;99.90
51567;DHT22;37657;53.182;5.638;2023-07-09T13:31:57;25.60;99.90
51567;DHT22;37657;53.182;5.638;2023-07-09T13:34:27;25.40;99.90
51567;DHT22;37657;53.182;5.638;2023-07-09T13:36:54;25.30;99.90
51567;DHT22;37657;53.182;5.638;2023-07-09T13:39:22;25.00;99.90
51567;DHT22;37657;53.182;5.638;2023-07-09T13:41:50;25.10;99.90
51567;DHT22;37657;53.182;5.638;2023-07-09T13:44:22;25.00;99.90
51567;DHT22;37657;53.182;5.638;2023-07-09T13:46:49;25.00;99.90
51567;DHT22;37657;53.182;5.638;2023-07-09T13:49:17;25.10;99.90
51567;DHT22;37657;53.182;5.638;2023-07-09T13:51:44;25.10;99.90
51567;DHT22;37657;53.182;5.638;2023-07-09T13:54:31;25.20;99.90
51567;DHT22;37657;53.182;5.638;2023-07-09T13:57:04;25.20;99.90
51567;DHT22;37657;53.182;5.638;2023-07-09T13:59:31;25.20;99.90
51567;DHT22;37657;53.182;5.638;2023-07-09T14:01:57;25.20;99.90
51567;DHT22;37657;53.182;5.638;2023-07-09T14:04:25;25.20;99.90
51567;DHT22;37657;53.182;5.638;2023-07-09T14:06:51;25.10;99.90
51567;DHT22;37657;53.182;5.638;2023-07-09T14:09:17;25.00;99.90
51567;DHT22;37657;53.182;5.638;2023-07-09T14:11:49;25.00;99.90
51567;DHT22;37657;53.182;5.638;2023-07-09T14:14:21;24.90;99.90
51567;DHT22;37657;53.182;5.638;2023-07-09T14:16:48;24.80;99.90
51567;DHT22;37657;53.182;5.638;2023-07-09T14:19:16;24.80;99.90
51567;DHT22;37657;53.182;5.638;2023-07-09T14:21:42;24.80;99.90
51567;DHT22;37657;53.182;5.638;2023-07-09T14:26:49;24.90;99.90
51567;DHT22;37657;53.182;5.638;2023-07-09T14:29:15;24.90;99.90
51567;DHT22;37657;53.182;5.638;2023-07-09T14:31:45;24.90;99.90
51567;DHT22;37657;53.182;5.638;2023-07-09T14:34:32;24.40;99.90
51567;DHT22;37657;53.182;5.638;2023-07-09T14:36:59;24.40;99.90
51567;DHT22;37657;53.182;5.638;2023-07-09T14:39:28;24.20;99.90
51567;DHT22;37657;53.182;5.638;2023-07-09T14:41:55;23.90;99.90
51567;DHT22;37657;53.182;5.638;2023-07-09T14:44:29;23.60;99.90
51567;DHT22;37657;53.182;5.638;2023-07-09T14:47:00;23.50;99.90
51567;DHT22;37657;53.182;5.638;2023-07-09T14:49:26;23.30;99.90
51567;DHT22;37657;53.182;5.638;2023-07-09T14:51:53;23.20;99.90
51567;DHT22;37657;53.182;5.638;2023-07-09T14:54:28;23.10;99.90
51567;DHT22;37657;53.182;5.638;2023-07-09T14:56:55;22.90;99.90
51567;DHT22;37657;53.182;5.638;2023-07-09T14:59:21;22.90;99.90
51567;DHT22;37657;53.182;5.638;2023-07-09T15:01:47;22.80;99.90
51567;DHT22;37657;53.182;5.638;2023-07-09T15:04:25;22.80;99.90
51567;DHT22;37657;53.182;5.638;2023-07-09T15:06:53;22.80;99.90
51567;DHT22;37657;53.182;5.638;2023-07-09T15:09:22;22.90;99.90
51567;DHT22;37657;53.182;5.638;2023-07-09T15:11:58;22.90;99.90
51567;DHT22;37657;53.182;5.638;2023-07-09T15:14:26;22.90;99.90
51567;DHT22;37657;53.182;5.638;2023-07-09T15:16:52;23.00;99.90
51567;DHT22;37657;53.182;5.638;2023-07-09T15:19:20;22.80;99.90
51567;DHT22;37657;53.182;5.638;2023-07-09T15:21:48;22.70;99.90
51567;DHT22;37657;53.182;5.638;2023-07-09T15:24:34;22.50;99.90
51567;DHT22;37657;53.182;5.638;2023-07-09T15:27:01;22.50;99.90
51567;DHT22;37657;53.182;5.638;2023-07-09T15:29:30;22.20;99.90
51567;DHT22;37657;53.182;5.638;2023-07-09T15:31:56;22.20;99.90
51567;DHT22;37657;53.182;5.638;2023-07-09T15:34:21;22.20;99.90
51567;DHT22;37657;53.182;5.638;2023-07-09T15:36:49;22.10;99.90
51567;DHT22;37657;53.182;5.638;2023-07-09T15:39:19;22.00;99.90
51567;DHT22;37657;53.182;5.638;2023-07-09T15:41:46;21.90;99.90
51567;DHT22;37657;53.182;5.638;2023-07-09T15:44:18;21.80;99.90
51567;DHT22;37657;53.182;5.638;2023-07-09T15:46:51;21.70;99.90
51567;DHT22;37657;53.182;5.638;2023-07-09T15:49:17;21.60;99.90
51567;DHT22;37657;53.182;5.638;2023-07-09T15:51:43;21.40;99.90
51567;DHT22;37657;53.182;5.638;2023-07-09T15:54:18;21.40;99.90
51567;DHT22;37657;53.182;5.638;2023-07-09T15:56:45;21.30;99.90
51567;DHT22;37657;53.182;5.638;2023-07-09T15:59:24;21.20;99.90
51567;DHT22;37657;53.182;5.638;2023-07-09T16:01:51;21.10;99.90
51567;DHT22;37657;53.182;5.638;2023-07-09T16:04:17;21.10;99.90
51567;DHT22;37657;53.182;5.638;2023-07-09T16:06:43;21.00;99.90
51567;DHT22;37657;53.182;5.638;2023-07-09T16:09:09;20.90;99.90
51567;DHT22;37657;53.182;5.638;2023-07-09T16:11:37;20.80;99.90
51567;DHT22;37657;53.182;5.638;2023-07-09T16:14:12;20.80;99.90
51567;DHT22;37657;53.182;5.638;2023-07-09T16:16:41;20.70;99.90
51567;DHT22;37657;53.182;5.638;2023-07-09T16:19:07;20.60;99.90
51567;DHT22;37657;53.182;5.638;2023-07-09T16:21:32;20.60;99.90